createdAt,value
2019-02-20T00:01:47.616Z,6.60
2019-02-20T00:04:16.995Z,6.60
2019-02-20T00:06:46.367Z,6.60
2019-02-20T00:09:15.769Z,6.70
2019-02-20T00:11:45.488Z,6.60
2019-02-20T00:14:14.814Z,6.60
2019-02-20T00:16:44.220Z,6.60
2019-02-20T00:19:13.616Z,6.60
2019-02-20T00:21:43.020Z,6.60
2019-02-20T00:24:12.407Z,6.60
2019-02-20T00:26:43.333Z,6.50
2019-02-20T00:29:12.756Z,6.50
2019-02-20T00:31:42.524Z,6.50
2019-02-20T00:34:12.080Z,6.50
2019-02-20T00:36:41.411Z,6.50
2019-02-20T00:39:11.168Z,6.50
2019-02-20T00:41:40.602Z,6.50
2019-02-20T00:44:29.278Z,6.50
2019-02-20T00:47:17.550Z,6.50
2019-02-20T00:49:49.214Z,6.50
2019-02-20T00:52:35.914Z,6.50
2019-02-20T00:55:06.049Z,6.50
2019-02-20T00:57:35.468Z,6.50
2019-02-20T01:00:05.774Z,6.50
2019-02-20T01:02:35.132Z,6.50
2019-02-20T01:05:04.874Z,6.50
2019-02-20T01:07:34.272Z,6.50
2019-02-20T01:10:03.777Z,6.50
2019-02-20T01:12:33.206Z,6.50
2019-02-20T01:15:02.645Z,6.50
2019-02-20T01:17:32.164Z,6.50
2019-02-20T01:20:01.558Z,6.50
2019-02-20T01:22:31.074Z,6.50
2019-02-20T01:25:00.457Z,6.40
2019-02-20T01:27:29.850Z,6.50
2019-02-20T01:29:59.580Z,6.40
2019-02-20T01:32:28.969Z,6.50
2019-02-20T01:34:58.310Z,6.40
2019-02-20T01:37:27.628Z,6.40
2019-02-20T01:39:57.054Z,6.40
2019-02-20T01:42:26.351Z,6.40
2019-02-20T01:44:55.827Z,6.40
2019-02-20T01:47:26.349Z,6.40
2019-02-20T01:49:55.755Z,6.40
2019-02-20T01:52:25.357Z,6.40
2019-02-20T01:54:54.709Z,6.40
2019-02-20T01:57:24.446Z,6.40
2019-02-20T01:59:53.822Z,6.40
2019-02-20T02:02:23.183Z,6.30
2019-02-20T02:04:52.642Z,6.40
2019-02-20T02:07:22.043Z,6.30
2019-02-20T02:09:51.419Z,6.30
2019-02-20T02:12:20.839Z,6.30
2019-02-20T02:14:50.220Z,6.30
2019-02-20T02:17:38.941Z,6.30
2019-02-20T02:20:09.086Z,6.30
2019-02-20T02:22:38.457Z,6.30
2019-02-20T02:25:08.837Z,6.30
2019-02-20T02:27:38.197Z,6.30
2019-02-20T02:30:08.909Z,6.20
2019-02-20T02:32:38.299Z,6.20
2019-02-20T02:35:08.043Z,6.20
2019-02-20T02:37:37.533Z,6.20
2019-02-20T02:40:07.176Z,6.20
2019-02-20T02:42:36.614Z,6.20
2019-02-20T02:45:06.260Z,6.30
2019-02-20T02:47:35.691Z,6.20
2019-02-20T02:50:05.371Z,6.20
2019-02-20T02:52:34.751Z,6.20
2019-02-20T02:55:04.420Z,6.20
2019-02-20T02:57:33.789Z,6.10
2019-02-20T03:00:03.280Z,6.20
2019-02-20T03:02:32.692Z,6.10
2019-02-20T03:05:02.001Z,6.20
2019-02-20T03:07:31.438Z,6.20
2019-02-20T03:10:00.820Z,6.10
2019-02-20T03:12:30.629Z,6.10
2019-02-20T03:15:00.428Z,6.10
2019-02-20T03:17:29.794Z,6.20
2019-02-20T03:19:59.255Z,6.10
2019-02-20T03:22:28.588Z,6.10
2019-02-20T03:24:58.049Z,6.10
2019-02-20T03:27:27.468Z,6.10
2019-02-20T03:29:57.188Z,6.10
2019-02-20T03:32:26.669Z,6.10
2019-02-20T03:34:56.041Z,6.10
2019-02-20T03:37:25.367Z,6.00
2019-02-20T03:39:54.780Z,6.10
2019-02-20T03:42:24.155Z,6.00
2019-02-20T03:44:53.471Z,6.10
2019-02-20T03:47:22.917Z,6.10
2019-02-20T03:49:52.295Z,6.10
2019-02-20T03:52:21.627Z,6.00
2019-02-20T03:54:51.359Z,6.00
2019-02-20T03:57:20.823Z,6.00
2019-02-20T03:59:50.356Z,6.00
2019-02-20T04:02:19.707Z,6.00
2019-02-20T04:04:49.026Z,6.00
2019-02-20T04:07:18.419Z,6.00
2019-02-20T04:09:47.723Z,6.00
2019-02-20T04:12:17.149Z,5.90
2019-02-20T04:14:46.569Z,5.90
2019-02-20T04:17:16.085Z,5.90
2019-02-20T04:19:45.412Z,5.90
2019-02-20T04:22:14.972Z,5.90
2019-02-20T04:24:44.745Z,5.90
2019-02-20T04:27:14.274Z,5.90
2019-02-20T04:29:43.731Z,5.90
2019-02-20T04:32:13.113Z,5.90
2019-02-20T04:34:42.487Z,5.90
2019-02-20T04:37:11.886Z,5.90
2019-02-20T04:39:41.702Z,5.80
2019-02-20T04:42:11.083Z,5.80
2019-02-20T04:44:40.501Z,5.80
2019-02-20T04:47:09.877Z,5.80
2019-02-20T04:49:39.283Z,5.80
2019-02-20T04:52:08.680Z,5.80
2019-02-20T04:54:38.086Z,5.80
2019-02-20T04:57:07.708Z,5.80
2019-02-20T04:59:37.150Z,5.80
2019-02-20T05:02:06.562Z,5.80
2019-02-20T05:04:35.982Z,5.80
2019-02-20T05:07:05.720Z,5.80
2019-02-20T05:09:35.116Z,5.80
2019-02-20T05:12:04.565Z,5.80
2019-02-20T05:14:34.033Z,5.80
2019-02-20T05:17:03.428Z,5.80
2019-02-20T05:19:32.828Z,5.80
2019-02-20T05:22:02.284Z,5.80
2019-02-20T05:24:31.671Z,5.80
2019-02-20T05:27:01.062Z,5.80
2019-02-20T05:29:30.540Z,5.90
2019-02-20T05:31:59.933Z,5.80
2019-02-20T05:34:29.299Z,5.80
2019-02-20T05:36:58.724Z,5.80
2019-02-20T05:39:28.134Z,5.80
2019-02-20T05:41:57.559Z,5.80
2019-02-20T05:44:26.935Z,5.80
2019-02-20T05:46:56.374Z,5.80
2019-02-20T05:49:26.164Z,5.80
2019-02-20T05:51:55.909Z,5.80
2019-02-20T05:54:34.049Z,5.80
2019-02-20T05:56:56.506Z,5.80
2019-02-20T05:59:25.929Z,5.80
2019-02-20T06:01:55.343Z,5.80
2019-02-20T06:04:24.730Z,5.80
2019-02-20T06:06:54.121Z,5.80
2019-02-20T06:09:24.775Z,5.80
2019-02-20T06:11:54.248Z,5.80
2019-02-20T06:14:23.653Z,5.80
2019-02-20T06:16:53.065Z,5.80
2019-02-20T06:19:22.470Z,5.80
2019-02-20T06:21:51.899Z,5.80
2019-02-20T06:24:21.479Z,5.80
2019-02-20T06:26:50.913Z,5.80
2019-02-20T06:29:20.305Z,5.80
2019-02-20T06:31:49.743Z,5.80
2019-02-20T06:34:19.109Z,5.80
2019-02-20T06:37:07.835Z,5.80
2019-02-20T06:39:37.251Z,5.80
2019-02-20T06:42:06.648Z,5.80
2019-02-20T06:44:36.087Z,5.80
2019-02-20T06:47:05.488Z,5.90
2019-02-20T06:49:35.192Z,5.90
2019-02-20T06:52:05.307Z,5.80
2019-02-20T06:54:35.143Z,5.80
2019-02-20T06:57:04.552Z,5.90
2019-02-20T06:59:33.961Z,5.90
2019-02-20T07:02:03.371Z,5.90
2019-02-20T07:04:32.737Z,5.90
2019-02-20T07:07:17.705Z,5.90
2019-02-20T07:10:37.845Z,5.90
2019-02-20T07:13:31.903Z,5.90
2019-02-20T07:16:39.426Z,5.90
2019-02-20T07:19:42.105Z,6.00
2019-02-20T07:22:48.788Z,6.00
2019-02-20T07:25:28.809Z,6.00
2019-02-20T07:28:34.218Z,6.00
2019-02-20T07:31:04.007Z,6.00
2019-02-20T07:33:33.620Z,6.00
2019-02-20T07:36:03.005Z,6.00
2019-02-20T07:38:32.423Z,6.00
2019-02-20T07:41:01.745Z,6.00
2019-02-20T07:43:31.270Z,6.10
2019-02-20T07:46:00.961Z,6.10
2019-02-20T07:48:30.665Z,6.10
2019-02-20T07:51:00.007Z,6.10
2019-02-20T07:53:29.681Z,6.10
2019-02-20T07:55:59.033Z,6.10
2019-02-20T07:58:28.415Z,6.10
2019-02-20T08:00:57.885Z,6.00
2019-02-20T08:03:29.539Z,6.00
2019-02-20T08:05:58.776Z,6.10
2019-02-20T08:08:28.167Z,6.10
2019-02-20T08:10:57.517Z,6.10
2019-02-20T08:13:27.334Z,6.10
2019-02-20T08:15:56.767Z,6.10
2019-02-20T08:18:26.179Z,6.10
2019-02-20T08:20:55.878Z,6.10
2019-02-20T08:23:25.681Z,6.20
2019-02-20T08:25:55.102Z,6.20
2019-02-20T08:28:24.438Z,6.20
2019-02-20T08:30:53.833Z,6.20
2019-02-20T08:33:23.340Z,6.20
2019-02-20T08:35:52.694Z,6.20
2019-02-20T08:38:22.096Z,6.20
2019-02-20T08:40:51.406Z,6.20
2019-02-20T08:43:21.069Z,6.20
2019-02-20T08:45:50.435Z,6.30
2019-02-20T08:48:19.889Z,6.30
2019-02-20T08:50:49.326Z,6.30
2019-02-20T08:53:18.728Z,6.40
2019-02-20T08:55:48.526Z,6.50
2019-02-20T08:58:17.880Z,6.50
2019-02-20T09:00:47.224Z,6.50
2019-02-20T09:03:17.412Z,6.50
2019-02-20T09:05:47.559Z,6.50
2019-02-20T09:08:16.908Z,6.50
2019-02-20T09:10:46.226Z,6.50
2019-02-20T09:13:15.679Z,6.50
2019-02-20T09:15:45.102Z,6.60
2019-02-20T09:18:14.530Z,6.60
2019-02-20T09:20:43.881Z,6.60
2019-02-20T09:23:13.358Z,6.60
2019-02-20T09:25:42.700Z,6.70
2019-02-20T09:28:12.082Z,6.70
2019-02-20T09:30:41.401Z,6.70
2019-02-20T09:33:10.860Z,6.80
2019-02-20T09:35:40.164Z,6.80
2019-02-20T09:38:10.521Z,6.80
2019-02-20T09:40:39.987Z,6.90
2019-02-20T09:43:09.398Z,6.90
2019-02-20T09:45:42.237Z,6.90
2019-02-20T09:48:09.922Z,6.90
2019-02-20T09:50:39.356Z,7.00
2019-02-20T09:53:08.852Z,7.00
2019-02-20T09:55:38.276Z,7.00
2019-02-20T09:58:07.695Z,7.10
2019-02-20T10:00:37.112Z,7.00
2019-02-20T10:03:06.511Z,7.10
2019-02-20T10:05:35.949Z,7.10
2019-02-20T10:08:05.674Z,7.10
2019-02-20T10:10:35.104Z,7.20
2019-02-20T10:13:04.425Z,7.20
2019-02-20T10:15:33.828Z,7.30
2019-02-20T10:18:03.162Z,7.30
2019-02-20T10:20:32.533Z,7.30
2019-02-20T10:23:01.966Z,7.40
2019-02-20T10:25:31.310Z,7.40
2019-02-20T10:28:00.740Z,7.50
2019-02-20T10:30:30.148Z,7.50
2019-02-20T10:33:00.006Z,7.50
2019-02-20T10:35:29.410Z,7.60
2019-02-20T10:37:58.803Z,7.60
2019-02-20T10:40:28.150Z,7.60
2019-02-20T10:42:57.928Z,7.70
2019-02-20T10:45:27.375Z,7.70
2019-02-20T10:47:56.780Z,7.70
2019-02-20T10:50:26.118Z,7.80
2019-02-20T10:52:55.558Z,7.90
2019-02-20T10:55:25.288Z,8.00
2019-02-20T10:57:54.710Z,8.10
2019-02-20T11:00:26.516Z,8.10
2019-02-20T11:02:55.916Z,8.20
2019-02-20T11:05:25.289Z,8.20
2019-02-20T11:07:54.708Z,8.30
2019-02-20T11:10:24.215Z,8.40
2019-02-20T11:12:53.732Z,8.40
2019-02-20T11:15:23.200Z,8.30
2019-02-20T11:17:52.925Z,8.30
2019-02-20T11:20:22.588Z,8.30
2019-02-20T11:22:51.990Z,8.30
2019-02-20T11:25:21.317Z,8.40
2019-02-20T11:27:50.829Z,8.40
2019-02-20T11:30:20.788Z,8.50
2019-02-20T11:32:50.184Z,8.60
2019-02-20T11:35:19.587Z,8.70
2019-02-20T11:37:48.998Z,8.70
2019-02-20T11:40:18.422Z,8.70
2019-02-20T11:42:47.820Z,8.80
2019-02-20T11:45:17.159Z,8.90
2019-02-20T11:47:46.562Z,9.00
2019-02-20T11:50:16.172Z,9.00
2019-02-20T11:52:45.519Z,9.00
2019-02-20T11:55:16.114Z,9.00
2019-02-20T11:57:45.508Z,9.10
2019-02-20T12:00:14.944Z,9.20
2019-02-20T12:02:44.464Z,9.30
2019-02-20T12:05:13.923Z,9.20
2019-02-20T12:07:43.820Z,9.20
2019-02-20T12:10:14.889Z,9.20
2019-02-20T12:12:45.358Z,9.20
2019-02-20T12:15:14.786Z,9.30
2019-02-20T12:17:44.196Z,9.30
2019-02-20T12:20:13.574Z,9.40
2019-02-20T12:22:42.992Z,9.40
2019-02-20T12:25:12.359Z,9.50
2019-02-20T12:27:41.768Z,9.60
2019-02-20T12:30:11.453Z,9.70
2019-02-20T12:32:41.103Z,9.80
2019-02-20T12:35:11.032Z,10.00
2019-02-20T12:37:40.400Z,10.10
2019-02-20T12:40:10.042Z,10.70
2019-02-20T12:42:39.469Z,10.70
2019-02-20T12:45:08.882Z,10.60
2019-02-20T12:47:38.339Z,10.60
2019-02-20T12:50:08.028Z,10.70
2019-02-20T12:52:37.575Z,10.80
2019-02-20T12:55:07.935Z,10.70
2019-02-20T12:57:37.557Z,10.60
2019-02-20T13:00:07.932Z,10.40
2019-02-20T13:02:37.529Z,10.40
2019-02-20T13:05:08.076Z,10.30
2019-02-20T13:07:38.059Z,10.30
2019-02-20T13:10:08.118Z,10.40
2019-02-20T13:12:37.848Z,10.40
2019-02-20T13:15:07.630Z,10.30
2019-02-20T13:17:37.062Z,10.20
2019-02-20T13:20:06.851Z,10.10
2019-02-20T13:22:36.622Z,10.10
2019-02-20T13:25:07.392Z,10.00
2019-02-20T13:27:36.876Z,10.00
2019-02-20T13:30:07.008Z,10.00
2019-02-20T13:32:42.515Z,9.90
2019-02-20T13:35:12.448Z,9.90
2019-02-20T13:37:42.038Z,9.90
2019-02-20T13:40:12.202Z,9.90
2019-02-20T13:42:42.226Z,9.80
2019-02-20T13:45:12.084Z,9.80
2019-02-20T13:47:41.690Z,9.80
2019-02-20T13:50:11.939Z,9.80
2019-02-20T13:52:50.079Z,9.80
2019-02-20T13:55:22.636Z,9.80
2019-02-20T13:57:52.783Z,9.80
2019-02-20T14:00:22.702Z,9.80
2019-02-20T14:02:52.522Z,9.80
2019-02-20T14:05:22.459Z,9.80
2019-02-20T14:07:51.886Z,9.80
2019-02-20T14:10:21.310Z,9.90
2019-02-20T14:12:50.715Z,9.90
2019-02-20T14:15:20.218Z,9.90
2019-02-20T14:17:49.635Z,9.90
2019-02-20T14:20:19.064Z,10.00
2019-02-20T14:22:48.486Z,10.00
2019-02-20T14:25:17.996Z,10.00
2019-02-20T14:27:47.456Z,10.10
2019-02-20T14:30:16.831Z,10.10
2019-02-20T14:32:46.307Z,10.10
2019-02-20T14:35:15.847Z,10.10
2019-02-20T14:37:45.286Z,10.00
2019-02-20T14:40:14.681Z,10.00
2019-02-20T14:42:44.113Z,10.00
2019-02-20T14:45:13.951Z,10.00
2019-02-20T14:47:43.359Z,10.00
2019-02-20T14:50:13.007Z,10.10
2019-02-20T14:52:42.814Z,10.00
2019-02-20T14:55:12.453Z,10.00
2019-02-20T14:57:42.243Z,10.00
2019-02-20T15:00:12.726Z,10.00
2019-02-20T15:02:42.166Z,10.00
2019-02-20T15:05:12.110Z,10.00
2019-02-20T15:07:41.661Z,10.00
2019-02-20T15:10:11.245Z,9.90
2019-02-20T15:12:40.647Z,9.90
2019-02-20T15:15:10.916Z,9.90
2019-02-20T15:17:40.496Z,9.90
2019-02-20T15:20:11.319Z,9.90
2019-02-20T15:22:40.733Z,9.90
2019-02-20T15:25:10.468Z,9.90
2019-02-20T15:27:39.983Z,10.00
2019-02-20T15:30:12.435Z,9.90
2019-02-20T15:32:42.035Z,9.90
2019-02-20T15:35:12.113Z,9.90
2019-02-20T15:37:41.531Z,9.90
2019-02-20T15:40:11.159Z,9.80
2019-02-20T15:42:40.588Z,9.80
2019-02-20T15:45:10.325Z,9.80
2019-02-20T15:47:39.775Z,9.80
2019-02-20T15:50:11.285Z,9.80
2019-02-20T15:52:40.856Z,9.80
2019-02-20T15:55:11.537Z,9.80
2019-02-20T15:57:40.947Z,9.80
2019-02-20T16:00:12.137Z,9.70
2019-02-20T16:02:41.635Z,9.70
2019-02-20T16:05:11.053Z,9.70
2019-02-20T16:07:40.502Z,9.70
2019-02-20T16:10:10.239Z,9.70
2019-02-20T16:12:39.613Z,9.70
2019-02-20T16:15:09.591Z,9.70
2019-02-20T16:17:39.011Z,9.60
2019-02-20T16:20:10.123Z,9.60
2019-02-20T16:22:39.498Z,9.60
2019-02-20T16:25:11.468Z,9.60
2019-02-20T16:27:46.688Z,9.60
2019-02-20T16:30:13.008Z,9.60
2019-02-20T16:32:42.616Z,9.60
2019-02-20T16:35:12.614Z,9.50
2019-02-20T16:37:42.131Z,9.60
2019-02-20T16:40:12.669Z,9.60
2019-02-20T16:42:42.109Z,9.60
2019-02-20T16:45:22.413Z,9.60
2019-02-20T16:47:52.919Z,9.60
2019-02-20T16:50:22.522Z,9.50
2019-02-20T16:52:51.963Z,9.50
2019-02-20T16:55:22.769Z,9.50
2019-02-20T16:57:56.579Z,9.50
2019-02-20T17:00:23.650Z,9.50
2019-02-20T17:02:53.778Z,9.50
2019-02-20T17:05:23.205Z,9.50
2019-02-20T17:07:52.698Z,9.40
2019-02-20T17:10:22.155Z,9.50
2019-02-20T17:12:51.559Z,9.40
2019-02-20T17:15:21.031Z,9.40
2019-02-20T17:17:52.992Z,9.40
2019-02-20T17:20:22.341Z,9.40
2019-02-20T17:22:51.795Z,9.40
2019-02-20T17:25:21.794Z,9.40
2019-02-20T17:27:51.211Z,9.40
2019-02-20T17:30:20.617Z,9.40
2019-02-20T17:32:50.760Z,9.40
2019-02-20T17:35:20.147Z,9.40
2019-02-20T17:37:52.305Z,9.30
2019-02-20T17:40:21.789Z,9.30
2019-02-20T17:42:51.634Z,9.30
2019-02-20T17:45:21.023Z,9.30
2019-02-20T17:47:50.444Z,9.30
2019-02-20T17:50:19.858Z,9.30
2019-02-20T17:52:49.293Z,9.30
2019-02-20T17:55:18.689Z,9.30
2019-02-20T17:57:48.124Z,9.30
2019-02-20T18:00:19.249Z,9.30
2019-02-20T18:02:48.705Z,9.20
2019-02-20T18:05:18.125Z,9.20
2019-02-20T18:07:51.489Z,9.20
2019-02-20T18:10:19.055Z,9.20
2019-02-20T18:12:48.879Z,9.20
2019-02-20T18:15:18.521Z,9.20
2019-02-20T18:17:49.115Z,9.20
2019-02-20T18:20:18.701Z,9.20
2019-02-20T18:23:07.305Z,9.20
2019-02-20T18:25:36.763Z,9.20
2019-02-20T18:28:06.550Z,9.20
2019-02-20T18:30:36.023Z,9.20
2019-02-20T18:33:05.435Z,9.10
2019-02-20T18:35:35.318Z,9.10
2019-02-20T18:38:04.648Z,9.10
2019-02-20T18:40:34.760Z,9.10
2019-02-20T18:43:04.497Z,9.10
2019-02-20T18:45:34.016Z,9.10
2019-02-20T18:48:03.420Z,9.10
2019-02-20T18:50:32.791Z,9.10
2019-02-20T18:53:02.514Z,9.10
2019-02-20T18:55:31.872Z,9.10
2019-02-20T18:58:01.282Z,9.00
2019-02-20T19:00:30.682Z,9.10
2019-02-20T19:03:00.139Z,9.00
2019-02-20T19:05:29.632Z,9.00
2019-02-20T19:07:59.133Z,9.00
2019-02-20T19:10:35.000Z,9.00
2019-02-20T19:13:32.778Z,9.00
2019-02-20T19:16:44.999Z,9.00
2019-02-20T19:19:34.441Z,9.00
2019-02-20T19:22:22.201Z,9.00
2019-02-20T19:25:53.136Z,9.00
2019-02-20T19:28:44.260Z,9.00
2019-02-20T19:32:09.513Z,8.90
2019-02-20T19:35:13.316Z,8.90
2019-02-20T19:38:26.061Z,8.90
2019-02-20T19:41:17.120Z,8.90
2019-02-20T19:44:20.344Z,8.90
2019-02-20T19:47:50.416Z,8.90
2019-02-20T19:51:11.945Z,8.90
2019-02-20T19:53:58.208Z,8.90
2019-02-20T19:57:05.427Z,8.90
2019-02-20T20:00:15.487Z,8.90
2019-02-20T20:03:32.364Z,8.90
2019-02-20T20:06:49.102Z,8.90
2019-02-20T20:10:11.583Z,8.90
2019-02-20T20:13:06.713Z,8.90
2019-02-20T20:16:17.605Z,8.90
2019-02-20T20:19:25.517Z,8.90
2019-02-20T20:22:51.492Z,8.90
2019-02-20T20:26:04.610Z,8.90
2019-02-20T20:29:11.003Z,8.90
2019-02-20T20:31:46.330Z,8.90
2019-02-20T20:34:59.537Z,8.80
2019-02-20T20:37:57.400Z,8.80
2019-02-20T20:41:13.128Z,8.80
2019-02-20T20:44:03.485Z,8.80
2019-02-20T20:47:01.828Z,8.80
2019-02-20T20:50:12.257Z,8.80
2019-02-20T20:53:44.459Z,8.80
2019-02-20T20:56:28.044Z,8.80
2019-02-20T20:59:20.930Z,8.80
2019-02-20T21:02:21.014Z,8.80
2019-02-20T21:05:26.276Z,8.80
2019-02-20T21:08:18.936Z,8.80
2019-02-20T21:11:41.792Z,8.80
2019-02-20T21:14:38.988Z,8.80
2019-02-20T21:17:51.272Z,8.70
2019-02-20T21:21:07.775Z,8.70
2019-02-20T21:24:20.495Z,8.70
2019-02-20T21:27:27.230Z,8.70
2019-02-20T21:30:41.596Z,8.70
2019-02-20T21:33:52.022Z,8.70
2019-02-20T21:36:32.627Z,8.70
2019-02-20T21:40:01.454Z,8.70
2019-02-20T21:43:27.480Z,8.70
2019-02-20T21:46:11.020Z,8.70
2019-02-20T21:48:55.004Z,8.70
2019-02-20T21:51:56.483Z,8.70
2019-02-20T21:55:26.112Z,8.70
2019-02-20T21:58:57.772Z,8.60
2019-02-20T22:01:56.432Z,8.60
2019-02-20T22:04:50.609Z,8.60
2019-02-20T22:07:50.487Z,8.60
2019-02-20T22:10:49.222Z,8.60
2019-02-20T22:14:08.595Z,8.60
2019-02-20T22:17:14.991Z,8.50
2019-02-20T22:20:25.929Z,8.50
2019-02-20T22:23:27.766Z,8.50
2019-02-20T22:26:50.556Z,8.50
2019-02-20T22:29:55.466Z,8.50
2019-02-20T22:32:46.094Z,8.40
2019-02-20T22:35:59.943Z,8.40
2019-02-20T22:38:53.120Z,8.40
2019-02-20T22:41:59.281Z,8.40
2019-02-20T22:45:20.912Z,8.40
2019-02-20T22:48:23.576Z,8.30
2019-02-20T22:51:25.358Z,8.30
2019-02-20T22:54:21.237Z,8.30
2019-02-20T22:57:15.850Z,8.30
2019-02-20T23:00:34.133Z,8.30
2019-02-20T23:03:47.006Z,8.30
2019-02-20T23:06:59.548Z,8.30
2019-02-20T23:10:34.614Z,8.30
2019-02-20T23:13:38.222Z,8.30
2019-02-20T23:16:08.017Z,8.20
2019-02-20T23:18:37.430Z,8.20
2019-02-20T23:21:06.837Z,8.20
2019-02-20T23:23:36.184Z,8.30
2019-02-20T23:26:05.594Z,8.20
2019-02-20T23:28:35.007Z,8.20
2019-02-20T23:31:04.672Z,8.20
2019-02-20T23:33:34.083Z,8.20
2019-02-20T23:36:03.492Z,8.20
2019-02-20T23:38:32.822Z,8.10
2019-02-20T23:41:02.164Z,8.10
2019-02-20T23:43:31.500Z,8.10
2019-02-20T23:46:00.958Z,8.10
2019-02-20T23:48:30.381Z,8.10
2019-02-20T23:50:59.790Z,8.10
2019-02-20T23:53:29.167Z,8.00
2019-02-20T23:55:58.586Z,8.00
2019-02-20T23:58:27.944Z,8.00
